Observations for QUIMPER PLUGUFF, France (LFRQ)

LFRQ 200730Z AUTO 00000KT 1200 R28/1800U BR BKN006 OVC010 07/07 Q1034 TEMPO 7000 NSW BKN015 
LFRQ 200700Z AUTO 00000KT 1600 BR SCT006 OVC022 06/06 Q1034 TEMPO 7000 NSW BECMG BKN009 
LFRQ 200630Z AUTO 00000KT 2100 BR SCT010 BKN020 OVC025 06/06 Q1033  
LFRQ 200600Z AUTO 00000KT 5000 BR OVC013 06/06 Q1033
LFRQ 200530Z AUTO 00000KT 5000 BR BKN009 BKN018 OVC033 05/05 Q1033  
LFRQ 200500Z AUTO 00000KT 5000 BR BKN010 OVC039 05/05 Q1033 
LFRQ 200430Z AUTO 00000KT 4800 BR FEW011 OVC042 05/05 Q1033 
LFRQ 200400Z AUTO 00000KT 5000 BR OVC042 05/05 Q1033
LFRQ 200330Z AUTO 00000KT 3700 BR FEW001 OVC042 05/05 Q1033 
LFRQ 200300Z AUTO 00000KT 1400 0900 R28/1400D BCFG VV/// 05/05 Q1033
LFRQ 200230Z AUTO 00000KT 0800 R28/1100U FG VV/// 04/04 Q1033   
LFRQ 200200Z AUTO VRB02KT 0800 R28/1000D FG FEW001 05/05 Q1033  
LFRQ 200130Z AUTO 33002KT 1200 0900 R28/1800U BCFG VV/// 05/05 Q1033
LFRQ 200100Z AUTO 30002KT 1400 R28/1400D BR FEW003 SCT044 04/04 Q1033   
LFRQ 200030Z AUTO 00000KT 1300 1200 R28/1100U BCFG VV/// 06/06 Q1033
LFRQ 200000Z AUTO 00000KT 2400 0700 R28/1200D BCFG NSC 05/05 Q1033  
LFRQ 192330Z AUTO 28002KT 6000 NSC 06/05 Q1033  
LFRQ 192300Z AUTO 29004KT 4400 BR NSC 05/04 Q1033   
LFRQ 192230Z AUTO VRB02KT 9000 NSC 06/06 Q1033  
LFRQ 192200Z AUTO 32003KT 9999 FEW024 07/07 Q1033   
LFRQ 192130Z AUTO 31006KT 9999 BKN023 08/07 Q1033   
LFRQ 192100Z AUTO 31006KT 9999 BKN023 BKN130 07/06 Q1033
LFRQ 192030Z AUTO 30005KT 9999 BKN023 BKN140 07/06 Q1032
LFRQ 192000Z AUTO 30005KT CAVOK 07/06 Q1032 
LFRQ 191930Z AUTO 30004KT CAVOK 08/06 Q1032 
LFRQ 191900Z AUTO 30004KT CAVOK 08/06 Q1031 
LFRQ 191830Z AUTO 32004KT 9999 FEW020 SCT043 10/06 Q1031
LFRQ 191800Z AUTO 33005KT 9999 OVC044 11/07 Q1031   
LFRQ 191730Z AUTO 32006KT 9999 OVC044 11/07 Q1031   
LFRQ 191700Z AUTO 33007KT 9999 FEW018 OVC045 11/07 Q1031
LFRQ 191630Z AUTO 34007KT 9999 FEW020 BKN039 OVC046 11/07 Q1031 
LFRQ 191600Z AUTO 34007KT 9999 SCT018 BKN024 OVC035 11/08 Q1030 
LFRQ 191530Z AUTO 35006KT 320V020 9999 BKN021 BKN026 OVC041 11/08 Q1030 
LFRQ 191500Z AUTO 32008KT 9999 FEW022 OVC041 11/07 Q1030
LFRQ 191430Z AUTO 32008KT 9999 SCT020 BKN029 OVC037 11/08 Q1030 
LFRQ 191400Z AUTO 26005KT 9999 SCT016 BKN025 BKN032 11/09 Q1030 
LFRQ 191330Z AUTO 28006KT 9999 SCT020 BKN029 OVC035 11/07 Q1030 
LFRQ 191300Z AUTO VRB03KT 9999 SCT019 BKN025 BKN033 12/08 Q1030 
LFRQ 191230Z AUTO VRB03KT 9999 FEW007 BKN023 OVC042 11/09 Q1030 
LFRQ 191200Z AUTO 32008KT 9999 FEW010 OVC023 10/09 Q1030
LFRQ 191130Z AUTO 32007KT 280V340 9999 SCT016 BKN024 OVC031 10/08 Q1030 
LFRQ 191100Z AUTO VRB02KT 9999 BKN016 BKN028 BKN039 11/08 Q1030 
LFRQ 191030Z AUTO VRB02KT 9999 BKN017 BKN022 OVC040 11/08 Q1030 
LFRQ 191000Z AUTO VRB02KT 9999 FEW017 BKN035 OVC042 10/08 Q1030 
LFRQ 190930Z AUTO VRB03KT 9999 FEW036 BKN044 BKN094 10/08 Q1030 
LFRQ 190900Z AUTO 29003KT 9999 FEW026 BKN039 BKN048 09/08 Q1030 
LFRQ 190830Z AUTO 29002KT 9999 FEW040 SCT047 OVC100 08/08 Q1029 
LFRQ 190800Z AUTO 30003KT CAVOK 08/08 Q1029 
LFRQ 190730Z AUTO 00000KT 9999 FEW024 OVC098 07/07 Q1029
LFRQ 190700Z AUTO 00000KT 9999 BKN026 BKN046 OVC100 07/07 Q1029